createdAt,value
2023-03-05T00:01:33.074Z,0.76
2023-03-05T00:04:01.811Z,0.78
2023-03-05T00:06:31.815Z,0.72
2023-03-05T00:09:00.148Z,0.86
2023-03-05T00:11:30.339Z,0.68
2023-03-05T00:13:58.950Z,0.63
2023-03-05T00:16:27.502Z,0.56
2023-03-05T00:18:56.067Z,0.58
2023-03-05T00:21:25.489Z,0.47
2023-03-05T00:23:55.039Z,0.43
2023-03-05T00:26:24.128Z,0.42
2023-03-05T00:28:52.659Z,0.45
2023-03-05T00:31:21.806Z,0.32
2023-03-05T00:33:53.032Z,0.33
2023-03-05T00:36:21.093Z,0.31
2023-03-05T00:38:49.175Z,0.26
2023-03-05T00:41:18.601Z,0.28
2023-03-05T00:43:46.598Z,0.22
2023-03-05T00:46:14.713Z,0.24
2023-03-05T00:48:42.741Z,0.31
2023-03-05T00:51:10.752Z,0.23
2023-03-05T00:53:38.716Z,0.25
2023-03-05T00:56:07.258Z,0.30
2023-03-05T00:58:36.700Z,0.40
2023-03-05T01:01:05.153Z,0.43
2023-03-05T01:03:34.120Z,0.40
2023-03-05T01:06:02.628Z,0.33
2023-03-05T01:08:30.597Z,0.30
2023-03-05T01:10:58.760Z,0.40
2023-03-05T01:13:26.730Z,0.36
2023-03-05T01:15:56.268Z,0.38
2023-03-05T01:18:24.271Z,0.42
2023-03-05T01:20:52.297Z,0.38
2023-03-05T01:23:20.295Z,0.40
2023-03-05T01:25:54.126Z,0.40
2023-03-05T01:28:22.075Z,0.39
2023-03-05T01:30:50.210Z,0.42
2023-03-05T01:33:20.293Z,0.40
2023-03-05T01:35:48.894Z,0.43
2023-03-05T01:38:16.990Z,0.46
2023-03-05T01:40:45.800Z,0.37
2023-03-05T01:43:24.644Z,0.48
2023-03-05T01:46:11.359Z,0.44
2023-03-05T01:48:41.105Z,0.44
2023-03-05T01:51:09.514Z,0.50
2023-03-05T01:53:37.811Z,0.44
2023-03-05T01:56:07.323Z,0.40
2023-03-05T01:58:35.350Z,0.43
2023-03-05T02:01:04.063Z,0.40
2023-03-05T02:03:33.437Z,0.44
2023-03-05T02:06:02.969Z,0.51
2023-03-05T02:08:31.296Z,0.47
2023-03-05T02:11:00.479Z,0.49
2023-03-05T02:13:29.467Z,0.40
2023-03-05T02:15:59.349Z,0.39
2023-03-05T02:18:27.871Z,0.37
2023-03-05T02:21:01.145Z,0.34
2023-03-05T02:23:30.612Z,0.36
2023-03-05T02:25:58.969Z,0.35
2023-03-05T02:28:29.710Z,0.42
2023-03-05T02:30:58.076Z,0.28
2023-03-05T02:33:26.036Z,0.40
2023-03-05T02:35:54.290Z,0.19
2023-03-05T02:38:23.784Z,0.07
2023-03-05T02:40:52.023Z,0.07
2023-03-05T02:43:20.120Z,0.05
2023-03-05T02:45:48.136Z,0.02
2023-03-05T02:48:16.413Z,0.09
2023-03-05T02:50:45.288Z,0.02
2023-03-05T02:53:13.586Z,0.05
2023-03-05T02:55:43.355Z,0.02
2023-03-05T02:58:11.313Z,0.02
2023-03-05T03:00:39.300Z,0.01
2023-03-05T03:03:07.309Z,0.03
2023-03-05T03:05:36.287Z,0.04
2023-03-05T03:08:04.594Z,-0.00
2023-03-05T03:10:32.796Z,0.04
2023-03-05T03:13:02.166Z,-0.03
2023-03-05T03:15:30.171Z,-0.03
2023-03-05T03:17:58.175Z,-0.01
2023-03-05T03:20:26.150Z,0.07
2023-03-05T03:22:54.158Z,0.07
2023-03-05T03:25:23.361Z,0.03
2023-03-05T03:27:51.520Z,0.05
2023-03-05T03:30:21.413Z,0.01
2023-03-05T03:32:49.352Z,0.03
2023-03-05T03:35:17.866Z,0.06
2023-03-05T03:37:45.859Z,0.03
2023-03-05T03:40:14.216Z,0.06
2023-03-05T03:42:42.173Z,0.10
2023-03-05T03:45:10.591Z,0.02
2023-03-05T03:47:40.084Z,-0.06
2023-03-05T03:50:08.466Z,-0.08
2023-03-05T03:52:36.480Z,-0.10
2023-03-05T03:55:04.718Z,-0.14
2023-03-05T03:57:33.575Z,0.06
2023-03-05T04:00:01.658Z,-0.09
2023-03-05T04:02:29.895Z,-0.09
2023-03-05T04:04:59.266Z,-0.13
2023-03-05T04:07:27.235Z,-0.06
2023-03-05T04:09:55.322Z,-0.08
2023-03-05T04:12:23.417Z,-0.12
2023-03-05T04:14:51.602Z,-0.09
2023-03-05T04:17:19.547Z,0.01
2023-03-05T04:19:47.479Z,-0.03
2023-03-05T04:22:17.756Z,0.07
2023-03-05T04:24:46.013Z,-0.03
2023-03-05T04:27:14.059Z,-0.00
2023-03-05T04:29:42.026Z,-0.07
2023-03-05T04:32:10.429Z,-0.05
2023-03-05T04:34:38.931Z,-0.08
2023-03-05T04:37:07.157Z,0.10
2023-03-05T04:39:36.554Z,0.10
2023-03-05T04:42:04.546Z,-0.08
2023-03-05T04:44:32.588Z,-0.20
2023-03-05T04:47:00.898Z,0.08
2023-03-05T04:49:29.135Z,-0.04
2023-03-05T04:51:57.980Z,-0.20
2023-03-05T04:54:25.988Z,-0.25
2023-03-05T04:56:55.339Z,-0.31
2023-03-05T04:59:23.372Z,-0.18
2023-03-05T05:01:51.352Z,-0.25
2023-03-05T05:04:19.365Z,-0.22
2023-03-05T05:06:47.349Z,-0.29
2023-03-05T05:09:15.361Z,-0.25
2023-03-05T05:11:43.337Z,-0.18
2023-03-05T05:14:12.824Z,-0.08
2023-03-05T05:16:41.074Z,-0.11
2023-03-05T05:19:09.690Z,-0.02
2023-03-05T05:21:37.784Z,-0.08
2023-03-05T05:24:06.219Z,-0.06
2023-03-05T05:26:34.244Z,0.04
2023-03-05T05:29:02.274Z,-0.07
2023-03-05T05:31:31.775Z,-0.08
2023-03-05T05:33:59.837Z,0.09
2023-03-05T05:36:28.104Z,-0.04
2023-03-05T05:38:56.029Z,-0.05
2023-03-05T05:41:24.043Z,-0.04
2023-03-05T05:43:52.023Z,0.03
2023-03-05T05:46:20.996Z,0.09
2023-03-05T05:48:50.542Z,-0.04
2023-03-05T05:51:19.370Z,0.05
2023-03-05T05:53:47.744Z,-0.07
2023-03-05T05:56:16.674Z,-0.03
2023-03-05T05:58:47.246Z,-0.05
2023-03-05T06:01:16.444Z,0.04
2023-03-05T06:03:44.400Z,0.09
2023-03-05T06:06:15.099Z,0.07
2023-03-05T06:08:43.116Z,0.04
2023-03-05T06:11:11.209Z,0.00
2023-03-05T06:13:39.867Z,-0.00
2023-03-05T06:16:11.302Z,-0.14
2023-03-05T06:18:39.469Z,-0.09
2023-03-05T06:21:08.580Z,-0.08
2023-03-05T06:23:38.022Z,-0.06
2023-03-05T06:26:06.748Z,0.06
2023-03-05T06:28:35.003Z,0.11
2023-03-05T06:31:03.698Z,0.11
2023-03-05T06:33:31.993Z,0.13
2023-03-05T06:36:00.092Z,0.19
2023-03-05T06:38:28.171Z,0.16
2023-03-05T06:41:01.552Z,0.39
2023-03-05T06:43:29.560Z,0.15
2023-03-05T06:46:03.291Z,0.21
2023-03-05T06:48:31.349Z,0.07
2023-03-05T06:50:59.303Z,0.24
2023-03-05T06:53:27.648Z,0.29
2023-03-05T06:55:56.172Z,0.17
2023-03-05T06:58:25.514Z,0.29
2023-03-05T07:00:53.514Z,-0.03
2023-03-05T07:03:21.507Z,0.06
2023-03-05T07:05:49.518Z,-0.13
2023-03-05T07:08:17.919Z,-0.18
2023-03-05T07:10:46.043Z,-0.13
2023-03-05T07:13:14.350Z,-0.05
2023-03-05T07:15:45.037Z,0.12
2023-03-05T07:18:13.064Z,-0.01
2023-03-05T07:20:41.192Z,-0.01
2023-03-05T07:23:09.182Z,-0.03
2023-03-05T07:25:37.291Z,-0.00
2023-03-05T07:28:05.737Z,0.02
2023-03-05T07:30:33.902Z,0.16
2023-03-05T07:33:03.491Z,0.03
2023-03-05T07:35:31.507Z,0.20
2023-03-05T07:37:59.544Z,0.10
2023-03-05T07:40:27.550Z,0.15
2023-03-05T07:42:55.615Z,0.15
2023-03-05T07:45:23.617Z,0.16
2023-03-05T07:47:52.678Z,0.16
2023-03-05T07:50:22.244Z,0.43
2023-03-05T07:52:50.186Z,0.40
2023-03-05T07:55:18.185Z,0.40
2023-03-05T07:57:46.122Z,0.41
2023-03-05T08:00:14.641Z,0.47
2023-03-05T08:02:42.654Z,0.50
2023-03-05T08:05:10.896Z,0.52
2023-03-05T08:07:41.470Z,0.54
2023-03-05T08:10:10.621Z,0.62
2023-03-05T08:12:38.804Z,0.67
2023-03-05T08:15:07.348Z,0.90
2023-03-05T08:17:35.365Z,0.95
2023-03-05T08:20:05.675Z,0.97
2023-03-05T08:22:35.242Z,0.85
2023-03-05T08:25:05.671Z,0.90
2023-03-05T08:27:33.892Z,0.86
2023-03-05T08:30:02.941Z,0.99
2023-03-05T08:32:30.990Z,1.01
2023-03-05T08:34:59.223Z,0.96
2023-03-05T08:37:27.220Z,0.70
2023-03-05T08:39:56.366Z,0.73
2023-03-05T08:42:26.026Z,0.68
2023-03-05T08:44:54.015Z,0.55
2023-03-05T08:47:22.192Z,0.67
2023-03-05T08:49:50.445Z,0.74
2023-03-05T08:52:18.458Z,0.49
2023-03-05T08:54:46.412Z,0.59
2023-03-05T08:57:14.423Z,0.76
2023-03-05T08:59:43.856Z,0.71
2023-03-05T09:02:13.410Z,0.52
2023-03-05T09:04:41.851Z,0.63
2023-03-05T09:07:09.910Z,0.57
2023-03-05T09:09:38.207Z,0.59
2023-03-05T09:12:06.424Z,0.57
2023-03-05T09:14:34.425Z,0.89
2023-03-05T09:17:03.852Z,0.65
2023-03-05T09:19:31.807Z,0.46
2023-03-05T09:21:59.812Z,0.64
2023-03-05T09:24:27.874Z,0.80
2023-03-05T09:26:59.237Z,0.76
2023-03-05T09:29:27.864Z,0.68
2023-03-05T09:31:55.926Z,0.63
2023-03-05T09:34:25.363Z,0.73
2023-03-05T09:36:53.372Z,0.84
2023-03-05T09:39:21.443Z,0.83
2023-03-05T09:42:00.665Z,0.92
2023-03-05T09:44:34.979Z,1.16
2023-03-05T09:47:10.094Z,1.20
2023-03-05T09:49:49.086Z,1.46
2023-03-05T09:52:19.547Z,1.55
2023-03-05T09:54:50.510Z,1.41
2023-03-05T09:57:19.775Z,1.38
2023-03-05T09:59:50.407Z,1.61
2023-03-05T10:02:20.853Z,1.71
2023-03-05T10:04:53.845Z,1.59
2023-03-05T10:07:25.232Z,1.57
2023-03-05T10:09:57.109Z,1.62
2023-03-05T10:12:28.777Z,1.76
2023-03-05T10:14:57.294Z,1.98
2023-03-05T10:17:48.906Z,1.91
2023-03-05T10:20:36.462Z,2.07
2023-03-05T10:23:12.888Z,2.20
2023-03-05T10:25:51.610Z,2.26
2023-03-05T10:28:22.955Z,2.18
2023-03-05T10:31:00.144Z,2.40
2023-03-05T10:33:33.599Z,2.25
2023-03-05T10:36:13.672Z,2.44
2023-03-05T10:38:49.807Z,2.40
2023-03-05T10:41:25.367Z,2.23
2023-03-05T10:43:57.438Z,2.18
2023-03-05T10:46:31.720Z,2.11
2023-03-05T10:49:01.086Z,2.19
2023-03-05T10:51:34.828Z,2.04
2023-03-05T10:54:06.071Z,1.92
2023-03-05T10:56:34.366Z,1.86
2023-03-05T10:59:02.416Z,1.79
2023-03-05T11:01:31.689Z,1.98
2023-03-05T11:04:00.855Z,1.85
2023-03-05T11:06:40.262Z,1.82
2023-03-05T11:09:19.361Z,1.73
2023-03-05T11:12:03.619Z,1.90
2023-03-05T11:14:33.633Z,1.89
2023-03-05T11:17:02.326Z,1.86
2023-03-05T11:19:33.156Z,1.88
2023-03-05T11:22:11.248Z,2.00
2023-03-05T11:24:41.434Z,2.03
2023-03-05T11:27:25.563Z,2.11
2023-03-05T11:29:53.927Z,2.00
2023-03-05T11:32:24.150Z,2.11
2023-03-05T11:34:52.671Z,1.89
2023-03-05T11:37:24.169Z,2.04
2023-03-05T11:40:06.634Z,2.34
2023-03-05T11:42:35.202Z,2.51
2023-03-05T11:45:04.418Z,2.22
2023-03-05T11:47:39.193Z,2.28
2023-03-05T11:50:18.518Z,2.38
2023-03-05T11:52:49.287Z,2.47
2023-03-05T11:55:19.068Z,2.31
2023-03-05T11:57:50.314Z,2.78
2023-03-05T12:00:20.532Z,2.51
2023-03-05T12:02:51.694Z,2.31
2023-03-05T12:05:19.825Z,2.15
2023-03-05T12:07:51.586Z,2.16
2023-03-05T12:10:21.153Z,2.16
2023-03-05T12:12:52.839Z,2.28
2023-03-05T12:15:35.065Z,2.41
2023-03-05T12:18:08.916Z,2.55
2023-03-05T12:20:44.288Z,2.27
2023-03-05T12:23:15.905Z,2.26
2023-03-05T12:25:48.078Z,2.19
2023-03-05T12:28:17.011Z,2.16
2023-03-05T12:31:00.905Z,1.98
2023-03-05T12:33:34.086Z,1.94
2023-03-05T12:36:32.296Z,2.30
2023-03-05T12:39:02.272Z,2.18
2023-03-05T12:41:39.738Z,2.00
2023-03-05T12:44:11.856Z,2.11
2023-03-05T12:48:34.200Z,2.10
2023-03-05T12:51:04.275Z,2.20
2023-03-05T12:53:32.561Z,2.31
2023-03-05T12:56:14.757Z,1.93
2023-03-05T12:58:45.840Z,2.15
2023-03-05T13:01:31.995Z,2.31
2023-03-05T13:04:04.325Z,2.09
2023-03-05T13:06:36.067Z,1.91
2023-03-05T13:09:09.236Z,1.94
2023-03-05T13:11:40.345Z,1.92
2023-03-05T13:14:29.104Z,1.83
2023-03-05T13:16:57.886Z,2.02
2023-03-05T13:19:26.694Z,1.91
2023-03-05T13:22:04.694Z,1.79
2023-03-05T13:24:33.259Z,1.52
2023-03-05T13:27:01.838Z,1.30
2023-03-05T13:29:31.362Z,1.85
2023-03-05T13:32:01.869Z,1.91
2023-03-05T13:34:45.882Z,1.84
2023-03-05T13:37:20.166Z,1.93
2023-03-05T13:39:51.547Z,1.79
2023-03-05T13:42:21.778Z,1.82
2023-03-05T13:44:57.114Z,1.71
2023-03-05T13:47:28.671Z,1.72
2023-03-05T13:50:00.098Z,1.75
2023-03-05T13:52:34.175Z,1.81
2023-03-05T13:55:05.493Z,1.94
2023-03-05T13:57:37.408Z,1.93
2023-03-05T14:00:07.195Z,2.04
2023-03-05T14:02:35.527Z,1.86
2023-03-05T14:05:03.989Z,1.65
2023-03-05T14:07:39.911Z,1.59
2023-03-05T14:10:29.483Z,1.96
2023-03-05T14:12:59.139Z,1.83
2023-03-05T14:15:29.253Z,1.90
2023-03-05T14:18:18.035Z,1.81
2023-03-05T14:21:02.297Z,1.53
2023-03-05T14:23:40.556Z,1.81
2023-03-05T14:26:31.471Z,1.87
2023-03-05T14:29:02.141Z,1.88
2023-03-05T14:31:32.773Z,1.91
2023-03-05T14:34:06.744Z,1.99
2023-03-05T14:36:35.896Z,1.96
2023-03-05T14:39:06.601Z,2.10
2023-03-05T14:41:39.104Z,1.90
2023-03-05T14:44:15.835Z,1.82
2023-03-05T14:46:45.120Z,1.52
2023-03-05T14:49:13.551Z,1.41
2023-03-05T14:51:45.080Z,1.45
2023-03-05T14:54:26.648Z,1.33
2023-03-05T14:56:55.636Z,1.26
2023-03-05T14:59:23.965Z,1.32
2023-03-05T15:01:52.412Z,1.21
2023-03-05T15:04:20.893Z,1.44
2023-03-05T15:06:51.397Z,1.22
2023-03-05T15:09:21.385Z,1.59
2023-03-05T15:11:51.488Z,1.14
2023-03-05T15:14:20.026Z,1.14
2023-03-05T15:16:49.216Z,1.54
2023-03-05T15:19:17.680Z,1.54
2023-03-05T15:21:46.065Z,1.56
2023-03-05T15:24:15.074Z,1.60
2023-03-05T15:26:43.403Z,1.63
2023-03-05T15:29:13.145Z,1.77
2023-03-05T15:31:41.601Z,1.71
2023-03-05T15:34:10.005Z,1.64
2023-03-05T15:36:38.609Z,1.15
2023-03-05T15:39:07.490Z,1.60
2023-03-05T15:41:35.865Z,1.21
2023-03-05T15:44:04.714Z,1.47
2023-03-05T15:46:36.237Z,1.42
2023-03-05T15:49:04.664Z,1.21
2023-03-05T15:51:33.039Z,0.37
2023-03-05T15:54:01.416Z,1.37
2023-03-05T15:56:29.945Z,1.50
2023-03-05T15:58:58.795Z,1.32
2023-03-05T16:01:27.299Z,0.33
2023-03-05T16:03:57.306Z,1.14
2023-03-05T16:06:26.655Z,1.50
2023-03-05T16:08:59.792Z,0.73
2023-03-05T16:11:29.251Z,1.44
2023-03-05T16:13:58.387Z,1.63
2023-03-05T16:16:27.393Z,1.68
2023-03-05T16:18:58.357Z,1.33
2023-03-05T16:21:26.919Z,1.73
2023-03-05T16:23:56.076Z,1.88
2023-03-05T16:26:25.529Z,1.67
2023-03-05T16:28:54.151Z,1.57
2023-03-05T16:31:22.613Z,1.54
2023-03-05T16:33:50.983Z,1.50
2023-03-05T16:36:24.070Z,1.45
2023-03-05T16:38:54.196Z,1.41
2023-03-05T16:41:24.380Z,1.44
2023-03-05T16:43:53.701Z,1.34
2023-03-05T16:46:22.079Z,0.98
2023-03-05T16:48:50.713Z,1.21
2023-03-05T16:51:20.959Z,1.31
2023-03-05T16:53:49.638Z,1.38
2023-03-05T16:56:18.599Z,1.34
2023-03-05T16:58:47.558Z,1.38
2023-03-05T17:01:19.617Z,1.34
2023-03-05T17:03:48.947Z,1.35
2023-03-05T17:06:19.439Z,0.79
2023-03-05T17:08:50.348Z,1.23
2023-03-05T17:11:19.356Z,1.26
2023-03-05T17:13:49.078Z,1.38
2023-03-05T17:16:19.422Z,1.20
2023-03-05T17:18:48.173Z,1.20
2023-03-05T17:21:17.143Z,1.20
2023-03-05T17:23:45.629Z,1.04
2023-03-05T17:26:19.032Z,1.18
2023-03-05T17:28:48.163Z,1.19
2023-03-05T17:31:16.727Z,1.19
2023-03-05T17:33:45.389Z,1.24
2023-03-05T17:36:17.961Z,1.28
2023-03-05T17:38:47.794Z,1.33
2023-03-05T17:41:19.021Z,1.28
2023-03-05T17:43:47.485Z,1.38
2023-03-05T17:46:16.940Z,1.40
2023-03-05T17:48:45.720Z,1.48
2023-03-05T17:51:16.878Z,1.34
2023-03-05T17:53:46.570Z,1.26
2023-03-05T17:56:20.482Z,1.15
2023-03-05T17:58:48.981Z,1.11
2023-03-05T18:01:24.987Z,1.12
2023-03-05T18:03:53.425Z,1.07
2023-03-05T18:06:22.275Z,0.33
2023-03-05T18:08:51.501Z,0.98
2023-03-05T18:11:22.772Z,1.00
2023-03-05T18:13:51.238Z,1.05
2023-03-05T18:16:19.777Z,1.04
2023-03-05T18:18:48.133Z,1.04
2023-03-05T18:21:21.071Z,1.16
2023-03-05T18:23:51.162Z,1.03
2023-03-05T18:26:21.179Z,0.72
2023-03-05T18:28:49.571Z,0.95
2023-03-05T18:31:18.052Z,0.92
2023-03-05T18:33:48.112Z,0.93
2023-03-05T18:36:16.426Z,0.92
2023-03-05T18:38:44.912Z,0.53
2023-03-05T18:41:19.951Z,0.98
2023-03-05T18:43:50.674Z,0.83
2023-03-05T18:46:19.565Z,0.95
2023-03-05T18:48:49.381Z,0.68
2023-03-05T18:51:21.774Z,0.90
2023-03-05T18:53:51.298Z,0.91
2023-03-05T18:56:20.915Z,0.96
2023-03-05T18:58:51.319Z,1.06
2023-03-05T19:01:20.301Z,1.04
2023-03-05T19:03:50.340Z,1.04
2023-03-05T19:06:18.852Z,1.02
2023-03-05T19:08:47.681Z,1.03
2023-03-05T19:11:17.529Z,0.88
2023-03-05T19:13:49.181Z,1.01
2023-03-05T19:16:21.260Z,0.97
2023-03-05T19:18:59.967Z,0.99
2023-03-05T19:21:31.312Z,0.65
2023-03-05T19:24:02.133Z,0.99
2023-03-05T19:26:31.967Z,0.99
2023-03-05T19:29:02.580Z,1.02
2023-03-05T19:31:34.110Z,1.01
2023-03-05T19:34:03.997Z,0.96
2023-03-05T19:36:35.188Z,0.83
2023-03-05T19:39:06.040Z,0.89
2023-03-05T19:41:36.223Z,0.77
2023-03-05T19:44:07.881Z,0.81
2023-03-05T19:46:40.406Z,0.81
2023-03-05T19:49:10.406Z,0.74
2023-03-05T19:51:40.826Z,0.73
2023-03-05T19:54:10.611Z,0.71
2023-03-05T19:56:40.714Z,0.49
2023-03-05T19:59:11.227Z,0.74
2023-03-05T20:01:44.523Z,0.71
2023-03-05T20:04:16.851Z,0.64
2023-03-05T20:06:45.471Z,0.64
2023-03-05T20:09:14.535Z,0.66
2023-03-05T20:11:44.598Z,0.68
2023-03-05T20:14:14.785Z,0.69
2023-03-05T20:16:46.187Z,0.68
2023-03-05T20:19:20.502Z,0.70
2023-03-05T20:21:50.238Z,0.70
2023-03-05T20:24:21.354Z,0.66
2023-03-05T20:26:50.961Z,0.60
2023-03-05T20:29:21.011Z,0.64
2023-03-05T20:31:56.965Z,0.69
2023-03-05T20:34:27.728Z,0.66
2023-03-05T20:36:58.866Z,0.67
2023-03-05T20:39:28.768Z,0.72
2023-03-05T20:41:58.439Z,0.69
2023-03-05T20:44:28.063Z,0.71
2023-03-05T20:47:13.144Z,0.56
2023-03-05T20:49:42.763Z,0.68
2023-03-05T20:52:12.483Z,0.72
2023-03-05T20:54:42.082Z,0.68
2023-03-05T20:57:11.956Z,0.67
2023-03-05T20:59:43.448Z,0.55
2023-03-05T21:02:14.940Z,0.68
2023-03-05T21:04:45.111Z,0.64
2023-03-05T21:07:15.352Z,0.66
2023-03-05T21:09:45.064Z,0.64
2023-03-05T21:12:14.914Z,0.63
2023-03-05T21:14:44.616Z,0.59
2023-03-05T21:17:16.219Z,0.55
2023-03-05T21:19:46.379Z,0.53
2023-03-05T21:22:16.271Z,0.50
2023-03-05T21:24:56.145Z,0.50
2023-03-05T21:27:26.123Z,0.45
2023-03-05T21:29:55.633Z,0.43
2023-03-05T21:32:27.231Z,0.37
2023-03-05T21:34:59.407Z,0.37
2023-03-05T21:37:30.161Z,0.29
2023-03-05T21:40:00.010Z,0.29
2023-03-05T21:42:28.552Z,0.30
2023-03-05T21:44:58.949Z,0.26
2023-03-05T21:47:30.429Z,0.23
2023-03-05T21:50:00.846Z,0.23
2023-03-05T21:52:30.546Z,0.22
2023-03-05T21:55:00.885Z,0.08
2023-03-05T21:57:29.770Z,0.14
2023-03-05T22:00:00.772Z,-0.37
2023-03-05T22:02:32.642Z,0.12
2023-03-05T22:05:01.552Z,0.11
2023-03-05T22:07:29.862Z,0.02
2023-03-05T22:09:58.678Z,-0.05
2023-03-05T22:12:41.860Z,-0.19
2023-03-05T22:15:11.358Z,-0.11
2023-03-05T22:17:41.056Z,-0.06
2023-03-05T22:20:10.656Z,-0.08
2023-03-05T22:22:39.202Z,-0.09
2023-03-05T22:25:08.470Z,-0.13
2023-03-05T22:27:36.874Z,-0.12
2023-03-05T22:30:05.910Z,-0.77
2023-03-05T22:32:35.219Z,-0.15
2023-03-05T22:35:05.981Z,-0.17
2023-03-05T22:37:34.840Z,-0.19
2023-03-05T22:40:03.208Z,-0.18
2023-03-05T22:42:31.475Z,-0.09
2023-03-05T22:45:00.259Z,-0.14
2023-03-05T22:47:28.897Z,-0.13
2023-03-05T22:49:57.375Z,-0.17
2023-03-05T22:52:27.236Z,-0.20
2023-03-05T22:54:56.106Z,-0.21
2023-03-05T22:57:24.467Z,-0.86
2023-03-05T22:59:52.815Z,-0.20
2023-03-05T23:02:21.062Z,-0.19
2023-03-05T23:04:50.370Z,-0.16
2023-03-05T23:07:20.364Z,-0.14
2023-03-05T23:09:55.253Z,-0.11
2023-03-05T23:12:27.005Z,-0.68
2023-03-05T23:14:55.428Z,-0.09
2023-03-05T23:17:23.750Z,-0.24
2023-03-05T23:19:52.386Z,0.05
2023-03-05T23:22:20.942Z,-0.03
2023-03-05T23:24:49.796Z,0.04
2023-03-05T23:27:22.445Z,-0.01
2023-03-05T23:30:04.581Z,-0.13
2023-03-05T23:32:32.934Z,-0.16
2023-03-05T23:35:01.278Z,-0.18
2023-03-05T23:37:29.734Z,-0.10
2023-03-05T23:39:58.038Z,-0.36
2023-03-05T23:42:28.106Z,-0.10
2023-03-05T23:44:56.357Z,-0.10
2023-03-05T23:47:24.672Z,-0.14
2023-03-05T23:49:54.425Z,-0.29
2023-03-05T23:52:23.005Z,-0.60
2023-03-05T23:54:51.333Z,-0.12
2023-03-05T23:57:19.622Z,-0.13
2023-03-05T23:59:49.362Z,-0.15
